General Aviation Weather

Text Reports

Enter one or more of the following location identifiers separated by a space:

Zip Code, Four-Character ICAO or Three-Character IATA airport codes.

METAR - Aviation Routine Weather Report
KAPC - Napa County, California
Updated at 1:54 AM GMT on December 29, 2014 (5:54 PM PST):
METAR KAPC 290154Z AUTO 11003KT 10SM CLR 07/05 A3024 RMK AO2 SLP231 T00720050 $
TAF - Terminal Area Forecast
KAPC - Napa County, California
Updated at 1:54 AM GMT on December 29, 2014 (5:54 PM PST):
No TAF is currently available for this location.
Decoded:
No decoded TAF is available.
PIREP - Pilot Weather Report
KAPC - Napa County, California
Updated at 1:54 AM GMT on December 29, 2014 (5:54 PM PST):
No PIREP is currently available for this location.
AIRMET - Airmens Meteorological Information
KAPC - Napa County, California
Updated at 1:54 AM GMT on December 29, 2014 (5:54 PM PST):
No AIRMET is currently available for this location.
SIGMET - Significant Meteorological Information
KAPC - Napa County, California
Updated at 1:54 AM GMT on December 29, 2014 (5:54 PM PST):
No SIGMET is currently available for this location.
NOTAM - Notice to Airmen
KAPC - Napa County, California
Updated at 1:54 AM GMT on December 29, 2014 (5:54 PM PST):
No NOTAM is currently available for this location.
Forecast Area
KAPC - Napa County, California
Updated at 1:54 AM GMT on December 29, 2014 (5:54 PM PST):
No NOTAM is currently available for this location.
Aviation Weather Maps